sensor_id;sensor_type;location;lat;lon;timestamp;P1;durP1;ratioP1;P2;durP2;ratioP2
4047;SDS011;2038;51.728;6.674;2023-04-24T00:00:58;6.37;;;4.47;;
4047;SDS011;2038;51.728;6.674;2023-04-24T00:03:26;5.23;;;4.80;;
4047;SDS011;2038;51.728;6.674;2023-04-24T00:05:53;10.23;;;5.43;;
4047;SDS011;2038;51.728;6.674;2023-04-24T00:08:20;5.53;;;4.90;;
4047;SDS011;2038;51.728;6.674;2023-04-24T00:10:47;6.00;;;4.30;;
4047;SDS011;2038;51.728;6.674;2023-04-24T00:13:13;4.60;;;3.83;;
4047;SDS011;2038;51.728;6.674;2023-04-24T00:15:40;4.97;;;3.97;;
4047;SDS011;2038;51.728;6.674;2023-04-24T00:18:06;6.97;;;3.97;;
4047;SDS011;2038;51.728;6.674;2023-04-24T00:20:32;5.97;;;4.30;;
4047;SDS011;2038;51.728;6.674;2023-04-24T00:23:00;5.10;;;4.60;;
4047;SDS011;2038;51.728;6.674;2023-04-24T00:25:26;9.40;;;4.33;;
4047;SDS011;2038;51.728;6.674;2023-04-24T00:27:53;10.93;;;4.80;;
4047;SDS011;2038;51.728;6.674;2023-04-24T00:30:19;9.03;;;5.90;;
4047;SDS011;2038;51.728;6.674;2023-04-24T00:32:45;10.00;;;4.60;;
4047;SDS011;2038;51.728;6.674;2023-04-24T00:35:12;9.70;;;4.47;;
4047;SDS011;2038;51.728;6.674;2023-04-24T00:37:39;6.47;;;4.90;;
4047;SDS011;2038;51.728;6.674;2023-04-24T00:40:05;9.20;;;5.53;;
4047;SDS011;2038;51.728;6.674;2023-04-24T00:42:32;6.90;;;4.73;;
4047;SDS011;2038;51.728;6.674;2023-04-24T00:44:59;7.57;;;6.03;;
4047;SDS011;2038;51.728;6.674;2023-04-24T00:47:28;5.90;;;5.20;;
4047;SDS011;2038;51.728;6.674;2023-04-24T00:49:55;6.67;;;5.43;;
4047;SDS011;2038;51.728;6.674;2023-04-24T00:52:21;7.10;;;5.47;;
4047;SDS011;2038;51.728;6.674;2023-04-24T00:54:49;9.57;;;6.00;;
4047;SDS011;2038;51.728;6.674;2023-04-24T00:57:15;8.60;;;6.90;;
4047;SDS011;2038;51.728;6.674;2023-04-24T00:59:42;9.30;;;6.63;;
4047;SDS011;2038;51.728;6.674;2023-04-24T01:02:09;9.13;;;6.50;;
4047;SDS011;2038;51.728;6.674;2023-04-24T01:04:36;8.90;;;7.17;;
4047;SDS011;2038;51.728;6.674;2023-04-24T01:07:04;12.27;;;8.40;;
4047;SDS011;2038;51.728;6.674;2023-04-24T01:09:35;10.63;;;8.87;;
4047;SDS011;2038;51.728;6.674;2023-04-24T01:12:08;11.53;;;7.80;;
4047;SDS011;2038;51.728;6.674;2023-04-24T01:14:34;10.53;;;6.60;;
4047;SDS011;2038;51.728;6.674;2023-04-24T01:17:01;11.20;;;8.53;;
4047;SDS011;2038;51.728;6.674;2023-04-24T01:19:27;10.10;;;7.70;;
4047;SDS011;2038;51.728;6.674;2023-04-24T01:21:53;7.30;;;6.60;;
4047;SDS011;2038;51.728;6.674;2023-04-24T01:24:27;7.73;;;6.60;;
4047;SDS011;2038;51.728;6.674;2023-04-24T01:26:55;8.77;;;6.60;;
4047;SDS011;2038;51.728;6.674;2023-04-24T01:29:21;9.77;;;6.97;;
4047;SDS011;2038;51.728;6.674;2023-04-24T01:31:48;9.90;;;7.67;;
4047;SDS011;2038;51.728;6.674;2023-04-24T01:34:15;9.50;;;7.73;;
4047;SDS011;2038;51.728;6.674;2023-04-24T01:36:42;14.03;;;7.97;;
4047;SDS011;2038;51.728;6.674;2023-04-24T01:39:11;10.80;;;8.43;;
4047;SDS011;2038;51.728;6.674;2023-04-24T01:41:38;9.50;;;8.03;;
4047;SDS011;2038;51.728;6.674;2023-04-24T01:44:04;11.83;;;8.33;;
4047;SDS011;2038;51.728;6.674;2023-04-24T01:46:31;13.30;;;8.97;;
4047;SDS011;2038;51.728;6.674;2023-04-24T01:48:59;13.20;;;8.70;;
4047;SDS011;2038;51.728;6.674;2023-04-24T01:51:26;12.27;;;8.97;;
4047;SDS011;2038;51.728;6.674;2023-04-24T01:53:52;11.80;;;9.50;;
4047;SDS011;2038;51.728;6.674;2023-04-24T01:56:19;12.07;;;9.30;;
4047;SDS011;2038;51.728;6.674;2023-04-24T01:58:47;14.70;;;11.07;;
4047;SDS011;2038;51.728;6.674;2023-04-24T02:01:20;14.73;;;9.63;;
4047;SDS011;2038;51.728;6.674;2023-04-24T02:03:48;16.37;;;10.27;;
4047;SDS011;2038;51.728;6.674;2023-04-24T02:06:15;16.03;;;10.40;;
4047;SDS011;2038;51.728;6.674;2023-04-24T02:08:41;12.97;;;10.43;;
4047;SDS011;2038;51.728;6.674;2023-04-24T02:11:11;12.50;;;10.60;;
4047;SDS011;2038;51.728;6.674;2023-04-24T02:13:37;19.23;;;11.50;;
4047;SDS011;2038;51.728;6.674;2023-04-24T02:16:03;15.87;;;11.57;;
4047;SDS011;2038;51.728;6.674;2023-04-24T02:18:29;17.93;;;11.37;;
4047;SDS011;2038;51.728;6.674;2023-04-24T02:20:55;21.43;;;12.83;;
4047;SDS011;2038;51.728;6.674;2023-04-24T02:23:22;17.73;;;12.17;;
4047;SDS011;2038;51.728;6.674;2023-04-24T02:25:48;15.53;;;12.13;;
4047;SDS011;2038;51.728;6.674;2023-04-24T02:28:14;18.30;;;12.63;;
4047;SDS011;2038;51.728;6.674;2023-04-24T02:30:40;17.37;;;12.63;;
4047;SDS011;2038;51.728;6.674;2023-04-24T02:33:07;19.23;;;11.73;;
4047;SDS011;2038;51.728;6.674;2023-04-24T02:35:33;17.57;;;12.43;;
4047;SDS011;2038;51.728;6.674;2023-04-24T02:37:59;22.70;;;13.50;;
4047;SDS011;2038;51.728;6.674;2023-04-24T02:40:25;25.10;;;14.40;;
4047;SDS011;2038;51.728;6.674;2023-04-24T02:42:51;25.93;;;13.30;;
4047;SDS011;2038;51.728;6.674;2023-04-24T02:45:18;17.80;;;13.93;;
4047;SDS011;2038;51.728;6.674;2023-04-24T02:47:44;17.57;;;13.73;;
4047;SDS011;2038;51.728;6.674;2023-04-24T02:50:10;21.20;;;13.07;;
4047;SDS011;2038;51.728;6.674;2023-04-24T02:52:36;19.00;;;13.57;;
4047;SDS011;2038;51.728;6.674;2023-04-24T02:55:03;21.80;;;15.10;;
4047;SDS011;2038;51.728;6.674;2023-04-24T02:57:29;24.87;;;14.93;;
4047;SDS011;2038;51.728;6.674;2023-04-24T02:59:56;18.73;;;15.37;;
4047;SDS011;2038;51.728;6.674;2023-04-24T03:02:22;24.27;;;14.30;;
4047;SDS011;2038;51.728;6.674;2023-04-24T03:04:48;18.87;;;13.80;;
4047;SDS011;2038;51.728;6.674;2023-04-24T03:07:14;24.07;;;13.70;;
4047;SDS011;2038;51.728;6.674;2023-04-24T03:09:41;24.80;;;16.00;;
4047;SDS011;2038;51.728;6.674;2023-04-24T03:12:07;26.40;;;15.97;;
4047;SDS011;2038;51.728;6.674;2023-04-24T03:14:33;23.20;;;15.67;;
4047;SDS011;2038;51.728;6.674;2023-04-24T03:16:59;25.80;;;16.60;;
4047;SDS011;2038;51.728;6.674;2023-04-24T03:19:26;23.10;;;16.50;;
4047;SDS011;2038;51.728;6.674;2023-04-24T03:21:52;31.97;;;16.73;;
4047;SDS011;2038;51.728;6.674;2023-04-24T03:24:18;26.87;;;18.03;;
4047;SDS011;2038;51.728;6.674;2023-04-24T03:26:45;32.60;;;18.93;;
4047;SDS011;2038;51.728;6.674;2023-04-24T03:29:11;29.00;;;19.00;;
4047;SDS011;2038;51.728;6.674;2023-04-24T03:31:38;26.17;;;16.70;;
4047;SDS011;2038;51.728;6.674;2023-04-24T03:34:04;33.07;;;20.60;;
4047;SDS011;2038;51.728;6.674;2023-04-24T03:36:30;24.50;;;17.93;;
4047;SDS011;2038;51.728;6.674;2023-04-24T03:38:56;32.60;;;20.80;;
4047;SDS011;2038;51.728;6.674;2023-04-24T03:41:23;27.97;;;18.57;;
4047;SDS011;2038;51.728;6.674;2023-04-24T03:43:49;33.60;;;20.33;;
4047;SDS011;2038;51.728;6.674;2023-04-24T03:46:15;28.60;;;20.60;;
4047;SDS011;2038;51.728;6.674;2023-04-24T03:48:41;23.83;;;18.43;;
4047;SDS011;2038;51.728;6.674;2023-04-24T03:51:08;32.40;;;20.03;;
4047;SDS011;2038;51.728;6.674;2023-04-24T03:53:34;36.43;;;20.10;;
4047;SDS011;2038;51.728;6.674;2023-04-24T03:56:00;30.93;;;22.30;;
4047;SDS011;2038;51.728;6.674;2023-04-24T03:58:27;41.93;;;20.33;;
4047;SDS011;2038;51.728;6.674;2023-04-24T04:00:53;30.60;;;20.40;;
4047;SDS011;2038;51.728;6.674;2023-04-24T04:03:21;28.20;;;18.93;;
4047;SDS011;2038;51.728;6.674;2023-04-24T04:05:48;31.27;;;19.07;;
4047;SDS011;2038;51.728;6.674;2023-04-24T04:08:14;27.50;;;19.20;;
4047;SDS011;2038;51.728;6.674;2023-04-24T04:10:40;29.30;;;20.60;;
4047;SDS011;2038;51.728;6.674;2023-04-24T04:13:06;33.43;;;19.70;;
4047;SDS011;2038;51.728;6.674;2023-04-24T04:15:32;30.27;;;19.30;;
4047;SDS011;2038;51.728;6.674;2023-04-24T04:17:59;33.10;;;18.67;;
4047;SDS011;2038;51.728;6.674;2023-04-24T04:20:25;37.80;;;20.00;;
4047;SDS011;2038;51.728;6.674;2023-04-24T04:22:51;27.67;;;17.77;;
4047;SDS011;2038;51.728;6.674;2023-04-24T04:25:17;22.40;;;16.77;;
4047;SDS011;2038;51.728;6.674;2023-04-24T04:27:44;36.00;;;17.67;;
4047;SDS011;2038;51.728;6.674;2023-04-24T04:30:13;35.93;;;18.17;;
4047;SDS011;2038;51.728;6.674;2023-04-24T04:32:40;23.73;;;17.13;;
4047;SDS011;2038;51.728;6.674;2023-04-24T04:35:06;35.60;;;18.07;;
4047;SDS011;2038;51.728;6.674;2023-04-24T04:37:32;26.37;;;16.93;;
4047;SDS011;2038;51.728;6.674;2023-04-24T04:39:59;31.37;;;17.67;;
4047;SDS011;2038;51.728;6.674;2023-04-24T04:42:31;29.10;;;17.70;;
4047;SDS011;2038;51.728;6.674;2023-04-24T04:44:59;24.63;;;17.90;;
4047;SDS011;2038;51.728;6.674;2023-04-24T04:47:25;25.70;;;16.73;;
4047;SDS011;2038;51.728;6.674;2023-04-24T04:49:53;22.80;;;17.20;;
4047;SDS011;2038;51.728;6.674;2023-04-24T04:52:19;23.67;;;16.00;;
4047;SDS011;2038;51.728;6.674;2023-04-24T04:54:49;33.83;;;18.00;;
4047;SDS011;2038;51.728;6.674;2023-04-24T04:57:16;25.23;;;18.20;;
4047;SDS011;2038;51.728;6.674;2023-04-24T04:59:42;34.43;;;18.07;;
4047;SDS011;2038;51.728;6.674;2023-04-24T05:02:08;26.67;;;18.20;;
4047;SDS011;2038;51.728;6.674;2023-04-24T05:04:35;26.90;;;17.67;;
4047;SDS011;2038;51.728;6.674;2023-04-24T05:07:01;21.77;;;16.13;;
4047;SDS011;2038;51.728;6.674;2023-04-24T05:09:27;23.70;;;15.73;;
4047;SDS011;2038;51.728;6.674;2023-04-24T05:11:54;21.77;;;16.73;;
4047;SDS011;2038;51.728;6.674;2023-04-24T05:14:21;30.83;;;16.93;;
4047;SDS011;2038;51.728;6.674;2023-04-24T05:16:47;22.27;;;17.80;;
4047;SDS011;2038;51.728;6.674;2023-04-24T05:19:13;45.53;;;16.40;;
4047;SDS011;2038;51.728;6.674;2023-04-24T05:21:40;24.87;;;16.20;;
4047;SDS011;2038;51.728;6.674;2023-04-24T05:24:06;30.50;;;16.23;;
4047;SDS011;2038;51.728;6.674;2023-04-24T05:26:33;30.53;;;18.60;;
4047;SDS011;2038;51.728;6.674;2023-04-24T05:29:00;26.93;;;16.87;;
4047;SDS011;2038;51.728;6.674;2023-04-24T05:31:27;26.77;;;17.60;;
4047;SDS011;2038;51.728;6.674;2023-04-24T05:33:53;23.80;;;15.80;;
4047;SDS011;2038;51.728;6.674;2023-04-24T05:36:19;25.13;;;15.03;;
4047;SDS011;2038;51.728;6.674;2023-04-24T05:38:45;21.83;;;16.60;;
4047;SDS011;2038;51.728;6.674;2023-04-24T05:41:12;17.90;;;13.60;;
4047;SDS011;2038;51.728;6.674;2023-04-24T05:43:38;20.70;;;14.80;;
4047;SDS011;2038;51.728;6.674;2023-04-24T05:46:04;17.67;;;12.50;;
4047;SDS011;2038;51.728;6.674;2023-04-24T05:48:30;19.10;;;13.30;;
4047;SDS011;2038;51.728;6.674;2023-04-24T05:50:57;18.40;;;12.93;;
4047;SDS011;2038;51.728;6.674;2023-04-24T05:53:23;20.53;;;14.30;;
4047;SDS011;2038;51.728;6.674;2023-04-24T05:55:49;20.80;;;13.27;;
4047;SDS011;2038;51.728;6.674;2023-04-24T05:58:15;17.20;;;12.80;;
4047;SDS011;2038;51.728;6.674;2023-04-24T06:00:41;16.97;;;12.53;;
4047;SDS011;2038;51.728;6.674;2023-04-24T06:03:09;15.30;;;11.60;;
4047;SDS011;2038;51.728;6.674;2023-04-24T06:05:35;16.60;;;11.00;;
4047;SDS011;2038;51.728;6.674;2023-04-24T06:08:01;18.80;;;12.77;;
4047;SDS011;2038;51.728;6.674;2023-04-24T06:10:28;13.53;;;11.70;;
4047;SDS011;2038;51.728;6.674;2023-04-24T06:12:54;12.90;;;10.77;;
4047;SDS011;2038;51.728;6.674;2023-04-24T06:15:26;16.87;;;12.50;;
4047;SDS011;2038;51.728;6.674;2023-04-24T06:17:55;15.00;;;10.70;;
4047;SDS011;2038;51.728;6.674;2023-04-24T06:20:22;15.13;;;12.00;;
4047;SDS011;2038;51.728;6.674;2023-04-24T06:22:49;16.47;;;12.67;;
4047;SDS011;2038;51.728;6.674;2023-04-24T06:25:15;15.20;;;10.80;;
4047;SDS011;2038;51.728;6.674;2023-04-24T06:27:42;16.63;;;12.47;;
4047;SDS011;2038;51.728;6.674;2023-04-24T06:30:08;18.00;;;11.83;;
4047;SDS011;2038;51.728;6.674;2023-04-24T06:32:35;17.97;;;12.10;;
4047;SDS011;2038;51.728;6.674;2023-04-24T06:35:01;16.40;;;11.60;;
4047;SDS011;2038;51.728;6.674;2023-04-24T06:37:28;17.53;;;11.30;;
4047;SDS011;2038;51.728;6.674;2023-04-24T06:39:55;16.03;;;11.60;;
4047;SDS011;2038;51.728;6.674;2023-04-24T06:42:21;16.47;;;12.27;;
4047;SDS011;2038;51.728;6.674;2023-04-24T06:44:48;17.67;;;12.97;;
4047;SDS011;2038;51.728;6.674;2023-04-24T06:47:14;15.00;;;11.80;;
4047;SDS011;2038;51.728;6.674;2023-04-24T06:49:41;15.30;;;10.80;;
4047;SDS011;2038;51.728;6.674;2023-04-24T06:52:08;16.90;;;11.30;;
4047;SDS011;2038;51.728;6.674;2023-04-24T06:54:34;19.33;;;10.73;;
4047;SDS011;2038;51.728;6.674;2023-04-24T06:57:00;14.63;;;10.50;;
4047;SDS011;2038;51.728;6.674;2023-04-24T06:59:28;12.07;;;9.70;;
4047;SDS011;2038;51.728;6.674;2023-04-24T07:01:55;14.70;;;10.10;;
4047;SDS011;2038;51.728;6.674;2023-04-24T07:04:21;14.40;;;10.60;;
4047;SDS011;2038;51.728;6.674;2023-04-24T07:06:49;14.47;;;10.00;;
4047;SDS011;2038;51.728;6.674;2023-04-24T07:09:16;12.40;;;8.80;;
4047;SDS011;2038;51.728;6.674;2023-04-24T07:11:43;11.70;;;8.63;;
4047;SDS011;2038;51.728;6.674;2023-04-24T07:14:10;9.00;;;7.20;;
4047;SDS011;2038;51.728;6.674;2023-04-24T07:16:37;12.60;;;9.73;;
4047;SDS011;2038;51.728;6.674;2023-04-24T07:19:03;14.60;;;10.77;;
4047;SDS011;2038;51.728;6.674;2023-04-24T07:21:31;12.10;;;8.53;;
4047;SDS011;2038;51.728;6.674;2023-04-24T07:23:57;10.47;;;8.83;;
4047;SDS011;2038;51.728;6.674;2023-04-24T07:26:25;12.30;;;8.60;;
4047;SDS011;2038;51.728;6.674;2023-04-24T07:28:53;10.97;;;8.20;;
4047;SDS011;2038;51.728;6.674;2023-04-24T07:31:20;9.53;;;8.47;;
4047;SDS011;2038;51.728;6.674;2023-04-24T07:33:46;9.93;;;7.63;;
4047;SDS011;2038;51.728;6.674;2023-04-24T07:36:13;11.70;;;8.37;;
4047;SDS011;2038;51.728;6.674;2023-04-24T07:38:43;9.37;;;8.10;;
4047;SDS011;2038;51.728;6.674;2023-04-24T07:41:11;11.30;;;7.20;;
4047;SDS011;2038;51.728;6.674;2023-04-24T07:43:40;7.07;;;5.77;;
4047;SDS011;2038;51.728;6.674;2023-04-24T07:46:07;9.30;;;7.23;;
4047;SDS011;2038;51.728;6.674;2023-04-24T07:48:34;8.23;;;6.60;;
4047;SDS011;2038;51.728;6.674;2023-04-24T07:51:01;6.37;;;5.70;;
4047;SDS011;2038;51.728;6.674;2023-04-24T07:53:27;9.83;;;5.10;;
4047;SDS011;2038;51.728;6.674;2023-04-24T07:55:56;6.77;;;4.93;;
4047;SDS011;2038;51.728;6.674;2023-04-24T07:58:22;5.27;;;4.53;;
4047;SDS011;2038;51.728;6.674;2023-04-24T08:00:49;5.70;;;4.30;;
4047;SDS011;2038;51.728;6.674;2023-04-24T08:03:15;6.50;;;5.40;;
4047;SDS011;2038;51.728;6.674;2023-04-24T08:05:44;7.27;;;5.10;;
4047;SDS011;2038;51.728;6.674;2023-04-24T08:08:10;5.67;;;5.10;;
4047;SDS011;2038;51.728;6.674;2023-04-24T08:10:36;10.80;;;5.90;;
4047;SDS011;2038;51.728;6.674;2023-04-24T08:13:03;6.17;;;5.00;;
4047;SDS011;2038;51.728;6.674;2023-04-24T08:15:29;8.20;;;6.87;;
4047;SDS011;2038;51.728;6.674;2023-04-24T08:17:55;6.97;;;5.10;;
4047;SDS011;2038;51.728;6.674;2023-04-24T08:20:22;5.80;;;5.20;;
4047;SDS011;2038;51.728;6.674;2023-04-24T08:22:48;7.93;;;5.83;;
4047;SDS011;2038;51.728;6.674;2023-04-24T08:25:14;8.27;;;4.77;;
4047;SDS011;2038;51.728;6.674;2023-04-24T08:27:40;7.60;;;5.40;;
4047;SDS011;2038;51.728;6.674;2023-04-24T08:30:07;7.63;;;6.27;;
4047;SDS011;2038;51.728;6.674;2023-04-24T08:32:33;7.97;;;6.00;;
4047;SDS011;2038;51.728;6.674;2023-04-24T08:34:59;8.47;;;6.53;;
4047;SDS011;2038;51.728;6.674;2023-04-24T08:37:26;8.07;;;5.80;;
4047;SDS011;2038;51.728;6.674;2023-04-24T08:39:53;7.90;;;6.23;;
4047;SDS011;2038;51.728;6.674;2023-04-24T08:42:19;8.97;;;7.00;;
4047;SDS011;2038;51.728;6.674;2023-04-24T08:44:47;8.03;;;6.07;;
4047;SDS011;2038;51.728;6.674;2023-04-24T08:47:14;8.37;;;5.70;;
4047;SDS011;2038;51.728;6.674;2023-04-24T08:49:41;5.77;;;4.83;;
4047;SDS011;2038;51.728;6.674;2023-04-24T08:52:10;5.40;;;4.20;;
4047;SDS011;2038;51.728;6.674;2023-04-24T08:54:38;4.40;;;3.00;;
4047;SDS011;2038;51.728;6.674;2023-04-24T08:57:08;3.50;;;3.17;;
4047;SDS011;2038;51.728;6.674;2023-04-24T08:59:36;2.87;;;2.67;;
4047;SDS011;2038;51.728;6.674;2023-04-24T09:02:04;3.47;;;1.87;;
4047;SDS011;2038;51.728;6.674;2023-04-24T09:04:34;2.63;;;2.43;;
4047;SDS011;2038;51.728;6.674;2023-04-24T09:07:02;6.40;;;5.40;;
4047;SDS011;2038;51.728;6.674;2023-04-24T09:09:32;8.50;;;5.87;;
4047;SDS011;2038;51.728;6.674;2023-04-24T09:11:59;10.03;;;5.00;;
4047;SDS011;2038;51.728;6.674;2023-04-24T09:14:27;9.20;;;5.10;;
4047;SDS011;2038;51.728;6.674;2023-04-24T09:16:56;6.53;;;5.80;;
4047;SDS011;2038;51.728;6.674;2023-04-24T09:19:22;10.30;;;6.83;;
4047;SDS011;2038;51.728;6.674;2023-04-24T09:21:48;10.10;;;6.70;;
4047;SDS011;2038;51.728;6.674;2023-04-24T09:24:18;10.70;;;8.63;;
4047;SDS011;2038;51.728;6.674;2023-04-24T09:26:47;12.80;;;9.27;;
4047;SDS011;2038;51.728;6.674;2023-04-24T09:29:26;10.77;;;7.80;;
4047;SDS011;2038;51.728;6.674;2023-04-24T09:31:53;11.43;;;8.43;;
4047;SDS011;2038;51.728;6.674;2023-04-24T09:34:22;12.30;;;9.07;;
4047;SDS011;2038;51.728;6.674;2023-04-24T09:36:51;14.73;;;7.73;;
4047;SDS011;2038;51.728;6.674;2023-04-24T09:39:19;12.07;;;9.57;;
4047;SDS011;2038;51.728;6.674;2023-04-24T09:41:52;16.33;;;10.00;;
4047;SDS011;2038;51.728;6.674;2023-04-24T09:44:26;12.50;;;9.60;;
4047;SDS011;2038;51.728;6.674;2023-04-24T09:46:55;19.33;;;10.60;;
4047;SDS011;2038;51.728;6.674;2023-04-24T09:49:27;20.30;;;11.07;;
4047;SDS011;2038;51.728;6.674;2023-04-24T09:52:09;18.73;;;11.23;;
4047;SDS011;2038;51.728;6.674;2023-04-24T09:54:36;15.63;;;11.27;;
4047;SDS011;2038;51.728;6.674;2023-04-24T09:57:04;19.03;;;11.23;;
4047;SDS011;2038;51.728;6.674;2023-04-24T09:59:33;25.40;;;11.50;;
4047;SDS011;2038;51.728;6.674;2023-04-24T10:01:59;18.50;;;12.87;;
4047;SDS011;2038;51.728;6.674;2023-04-24T10:04:27;26.90;;;12.70;;
4047;SDS011;2038;51.728;6.674;2023-04-24T10:06:55;16.13;;;11.23;;
4047;SDS011;2038;51.728;6.674;2023-04-24T10:09:23;16.27;;;11.93;;
4047;SDS011;2038;51.728;6.674;2023-04-24T10:11:52;19.93;;;9.20;;
4047;SDS011;2038;51.728;6.674;2023-04-24T10:14:23;20.33;;;10.20;;
4047;SDS011;2038;51.728;6.674;2023-04-24T10:16:52;17.93;;;8.87;;
4047;SDS011;2038;51.728;6.674;2023-04-24T10:19:21;14.20;;;7.70;;
4047;SDS011;2038;51.728;6.674;2023-04-24T10:21:50;12.47;;;7.60;;
4047;SDS011;2038;51.728;6.674;2023-04-24T10:24:19;11.80;;;7.10;;
4047;SDS011;2038;51.728;6.674;2023-04-24T10:26:46;13.07;;;6.97;;
4047;SDS011;2038;51.728;6.674;2023-04-24T10:29:13;22.10;;;8.30;;
4047;SDS011;2038;51.728;6.674;2023-04-24T10:31:42;16.03;;;8.10;;
4047;SDS011;2038;51.728;6.674;2023-04-24T10:34:12;17.17;;;8.20;;
4047;SDS011;2038;51.728;6.674;2023-04-24T10:36:44;17.17;;;7.90;;
4047;SDS011;2038;51.728;6.674;2023-04-24T10:39:16;15.27;;;8.70;;
4047;SDS011;2038;51.728;6.674;2023-04-24T10:41:44;19.20;;;7.50;;
4047;SDS011;2038;51.728;6.674;2023-04-24T10:44:12;16.43;;;7.37;;
4047;SDS011;2038;51.728;6.674;2023-04-24T10:46:43;27.77;;;8.10;;
4047;SDS011;2038;51.728;6.674;2023-04-24T10:49:17;19.20;;;7.47;;
4047;SDS011;2038;51.728;6.674;2023-04-24T10:51:59;12.60;;;6.23;;
4047;SDS011;2038;51.728;6.674;2023-04-24T10:59:45;20.03;;;6.50;;
4047;SDS011;2038;51.728;6.674;2023-04-24T11:02:16;16.30;;;7.20;;
4047;SDS011;2038;51.728;6.674;2023-04-24T11:04:43;16.80;;;7.70;;
4047;SDS011;2038;51.728;6.674;2023-04-24T11:07:11;24.60;;;8.00;;
4047;SDS011;2038;51.728;6.674;2023-04-24T11:09:38;17.90;;;7.00;;
4047;SDS011;2038;51.728;6.674;2023-04-24T11:12:08;17.40;;;6.90;;
4047;SDS011;2038;51.728;6.674;2023-04-24T11:17:31;16.70;;;6.20;;
4047;SDS011;2038;51.728;6.674;2023-04-24T11:20:03;20.10;;;5.27;;
4047;SDS011;2038;51.728;6.674;2023-04-24T11:22:35;12.87;;;6.70;;
4047;SDS011;2038;51.728;6.674;2023-04-24T11:25:05;12.83;;;6.00;;
4047;SDS011;2038;51.728;6.674;2023-04-24T11:27:37;11.53;;;5.83;;
4047;SDS011;2038;51.728;6.674;2023-04-24T11:30:07;9.90;;;5.53;;
4047;SDS011;2038;51.728;6.674;2023-04-24T11:32:39;15.53;;;5.17;;
4047;SDS011;2038;51.728;6.674;2023-04-24T11:35:17;9.00;;;5.97;;
4047;SDS011;2038;51.728;6.674;2023-04-24T11:37:50;18.93;;;5.20;;
4047;SDS011;2038;51.728;6.674;2023-04-24T11:40:20;15.17;;;5.37;;
4047;SDS011;2038;51.728;6.674;2023-04-24T11:42:48;8.73;;;4.47;;
4047;SDS011;2038;51.728;6.674;2023-04-24T11:45:17;5.97;;;3.80;;
4047;SDS011;2038;51.728;6.674;2023-04-24T11:47:49;9.40;;;5.27;;
4047;SDS011;2038;51.728;6.674;2023-04-24T11:50:16;8.77;;;3.77;;
4047;SDS011;2038;51.728;6.674;2023-04-24T11:52:45;16.83;;;4.33;;
4047;SDS011;2038;51.728;6.674;2023-04-24T11:57:42;9.57;;;5.43;;
4047;SDS011;2038;51.728;6.674;2023-04-24T12:00:16;8.33;;;4.90;;
4047;SDS011;2038;51.728;6.674;2023-04-24T12:02:46;15.73;;;4.70;;
4047;SDS011;2038;51.728;6.674;2023-04-24T12:05:27;6.97;;;3.53;;
4047;SDS011;2038;51.728;6.674;2023-04-24T12:07:56;7.37;;;3.70;;
4047;SDS011;2038;51.728;6.674;2023-04-24T12:10:22;7.30;;;3.50;;
4047;SDS011;2038;51.728;6.674;2023-04-24T12:12:51;9.50;;;3.40;;
4047;SDS011;2038;51.728;6.674;2023-04-24T12:15:20;5.97;;;2.97;;
4047;SDS011;2038;51.728;6.674;2023-04-24T12:17:47;5.40;;;3.30;;
4047;SDS011;2038;51.728;6.674;2023-04-24T12:20:16;7.20;;;4.20;;
4047;SDS011;2038;51.728;6.674;2023-04-24T12:22:50;5.80;;;3.47;;
4047;SDS011;2038;51.728;6.674;2023-04-24T12:25:27;5.13;;;3.20;;
4047;SDS011;2038;51.728;6.674;2023-04-24T12:30:33;5.17;;;3.53;;
4047;SDS011;2038;51.728;6.674;2023-04-24T12:33:05;6.70;;;2.80;;
4047;SDS011;2038;51.728;6.674;2023-04-24T12:35:32;3.10;;;2.70;;
4047;SDS011;2038;51.728;6.674;2023-04-24T12:38:08;5.60;;;2.73;;
4047;SDS011;2038;51.728;6.674;2023-04-24T12:40:38;6.70;;;3.13;;
4047;SDS011;2038;51.728;6.674;2023-04-24T12:43:16;5.73;;;3.40;;
4047;SDS011;2038;51.728;6.674;2023-04-24T12:45:44;5.20;;;3.07;;
4047;SDS011;2038;51.728;6.674;2023-04-24T12:48:12;6.50;;;3.40;;
4047;SDS011;2038;51.728;6.674;2023-04-24T12:50:39;3.70;;;2.70;;
4047;SDS011;2038;51.728;6.674;2023-04-24T12:53:06;4.57;;;2.87;;
4047;SDS011;2038;51.728;6.674;2023-04-24T12:55:33;5.97;;;2.83;;
4047;SDS011;2038;51.728;6.674;2023-04-24T12:58:00;3.30;;;2.80;;
4047;SDS011;2038;51.728;6.674;2023-04-24T13:00:28;6.10;;;2.43;;
4047;SDS011;2038;51.728;6.674;2023-04-24T13:02:54;5.00;;;2.80;;
4047;SDS011;2038;51.728;6.674;2023-04-24T13:05:20;7.83;;;3.30;;
4047;SDS011;2038;51.728;6.674;2023-04-24T13:07:47;10.43;;;3.40;;
4047;SDS011;2038;51.728;6.674;2023-04-24T13:10:13;5.40;;;3.50;;
4047;SDS011;2038;51.728;6.674;2023-04-24T13:12:39;7.10;;;3.53;;
4047;SDS011;2038;51.728;6.674;2023-04-24T13:15:06;5.47;;;3.40;;
4047;SDS011;2038;51.728;6.674;2023-04-24T13:17:32;4.57;;;3.87;;
4047;SDS011;2038;51.728;6.674;2023-04-24T13:19:59;5.73;;;3.60;;
4047;SDS011;2038;51.728;6.674;2023-04-24T13:22:25;4.80;;;3.03;;
4047;SDS011;2038;51.728;6.674;2023-04-24T13:24:52;7.60;;;3.67;;
4047;SDS011;2038;51.728;6.674;2023-04-24T13:27:18;3.23;;;2.93;;
4047;SDS011;2038;51.728;6.674;2023-04-24T13:29:44;4.20;;;3.80;;
4047;SDS011;2038;51.728;6.674;2023-04-24T13:32:11;5.83;;;3.70;;
4047;SDS011;2038;51.728;6.674;2023-04-24T13:34:38;6.30;;;3.37;;
4047;SDS011;2038;51.728;6.674;2023-04-24T13:37:04;9.40;;;4.73;;
4047;SDS011;2038;51.728;6.674;2023-04-24T13:39:32;9.23;;;4.00;;
4047;SDS011;2038;51.728;6.674;2023-04-24T13:42:00;6.70;;;3.67;;
4047;SDS011;2038;51.728;6.674;2023-04-24T13:44:26;7.03;;;3.57;;
4047;SDS011;2038;51.728;6.674;2023-04-24T13:46:53;5.50;;;3.77;;
4047;SDS011;2038;51.728;6.674;2023-04-24T13:49:22;9.73;;;4.07;;
4047;SDS011;2038;51.728;6.674;2023-04-24T13:51:53;7.70;;;3.97;;
4047;SDS011;2038;51.728;6.674;2023-04-24T13:54:20;3.07;;;2.77;;
4047;SDS011;2038;51.728;6.674;2023-04-24T13:56:48;5.73;;;3.80;;
4047;SDS011;2038;51.728;6.674;2023-04-24T13:59:15;4.47;;;3.13;;
4047;SDS011;2038;51.728;6.674;2023-04-24T14:01:41;3.40;;;3.10;;
4047;SDS011;2038;51.728;6.674;2023-04-24T14:04:09;5.50;;;3.40;;
4047;SDS011;2038;51.728;6.674;2023-04-24T14:06:36;12.23;;;3.40;;
4047;SDS011;2038;51.728;6.674;2023-04-24T14:09:02;3.30;;;3.00;;
4047;SDS011;2038;51.728;6.674;2023-04-24T14:11:29;14.03;;;3.30;;
4047;SDS011;2038;51.728;6.674;2023-04-24T14:13:55;8.07;;;2.97;;
4047;SDS011;2038;51.728;6.674;2023-04-24T14:16:22;3.80;;;2.60;;
4047;SDS011;2038;51.728;6.674;2023-04-24T14:18:48;2.93;;;2.73;;
4047;SDS011;2038;51.728;6.674;2023-04-24T14:21:15;6.70;;;2.73;;
4047;SDS011;2038;51.728;6.674;2023-04-24T14:23:41;4.93;;;3.10;;
4047;SDS011;2038;51.728;6.674;2023-04-24T14:26:07;4.40;;;3.10;;
4047;SDS011;2038;51.728;6.674;2023-04-24T14:28:33;4.83;;;3.50;;
4047;SDS011;2038;51.728;6.674;2023-04-24T14:31:00;18.97;;;3.27;;
4047;SDS011;2038;51.728;6.674;2023-04-24T14:33:26;6.00;;;3.77;;
4047;SDS011;2038;51.728;6.674;2023-04-24T14:35:52;8.00;;;3.90;;
4047;SDS011;2038;51.728;6.674;2023-04-24T14:38:18;4.87;;;4.00;;
4047;SDS011;2038;51.728;6.674;2023-04-24T14:40:45;4.50;;;3.70;;
4047;SDS011;2038;51.728;6.674;2023-04-24T14:43:11;14.93;;;4.13;;
4047;SDS011;2038;51.728;6.674;2023-04-24T14:45:37;7.40;;;4.10;;
4047;SDS011;2038;51.728;6.674;2023-04-24T14:48:06;5.50;;;5.00;;
4047;SDS011;2038;51.728;6.674;2023-04-24T14:50:33;7.47;;;3.40;;
4047;SDS011;2038;51.728;6.674;2023-04-24T14:53:00;7.17;;;3.90;;
4047;SDS011;2038;51.728;6.674;2023-04-24T14:55:27;12.13;;;3.80;;
4047;SDS011;2038;51.728;6.674;2023-04-24T14:57:53;6.63;;;3.83;;
4047;SDS011;2038;51.728;6.674;2023-04-24T15:00:20;6.03;;;3.83;;
4047;SDS011;2038;51.728;6.674;2023-04-24T15:02:48;4.37;;;3.50;;
4047;SDS011;2038;51.728;6.674;2023-04-24T15:05:15;8.47;;;3.03;;
4047;SDS011;2038;51.728;6.674;2023-04-24T15:07:41;8.20;;;3.30;;
4047;SDS011;2038;51.728;6.674;2023-04-24T15:10:07;4.90;;;2.83;;
4047;SDS011;2038;51.728;6.674;2023-04-24T15:12:34;9.03;;;2.97;;
4047;SDS011;2038;51.728;6.674;2023-04-24T15:15:00;5.03;;;2.90;;
4047;SDS011;2038;51.728;6.674;2023-04-24T15:17:27;14.37;;;4.57;;